This demonstration page uses our WeatherBlox Daily Observations layout. Learn more.

39.51506, -84.39828

Hourly Observations for July 16, 2020

Temp ( °F °C ) Dew Point ( °F °C ) Humidity (%) Winds ( mph kmh ) Pressure ( in mb ) Visibility ( mi km ) Precip ( " mm )
12:15 am 00:15 Clear N/A N/A N/A Calm N/A 10 16.0934 0 0
12:35 am 00:35 Clear N/A N/A N/A Calm N/A 10 16.0934 0 0
12:55 am 00:55 Clear 73 23 68 20 83 83 W 3 6 29.97 1015 10 16.0934 0 0
1:15 am 01:15 Clear N/A N/A N/A S 9 15 N/A 10 16.0934 0 0
1:35 am 01:35 Clear N/A N/A N/A S 8 13 N/A 10 16.0934 0 0
1:55 am 01:55 Clear N/A N/A N/A S 6 9 N/A 10 16.0934 0 0
2:15 am 02:15 Clear N/A N/A N/A SSE 7 11 N/A 10 16.0934 0 0
2:35 am 02:35 Clear 81 27 68 20 66 66 S 6 9 29.93 1013 10 16.0934 0 0
2:55 am 02:55 Clear N/A N/A N/A S 8 13 N/A 10 16.0934 0 0
3:15 am 03:15 Clear N/A N/A N/A SW 5 7 N/A 10 16.0934 0 0
3:35 am 03:35 Clear N/A N/A N/A S 3 6 N/A 10 16.0934 0 0
3:55 am 03:55 Clear N/A N/A N/A S 5 7 N/A 10 16.0934 0 0
4:15 am 04:15 Clear 78 25.8 68 20.1 71 71 SSE 3 6 29.89 1012 10 16.0934 0 0
4:35 am 04:35 Partly Cloudy N/A N/A N/A SSE 3 6 N/A 10 16.0934 0 0
4:55 am 04:55 Mostly Cloudy 79 26 68 20.1 70 70 S 6 9 29.9 1013 10 16.0934 0 0
5:15 am 05:15 Clear 78 25.7 68 20 71 71 SSW 5 7 29.9 1013 10 16.0934 0 0
5:35 am 05:35 Partly Cloudy N/A N/A N/A S 9 15 N/A 10 16.0934 0 0
5:55 am 05:55 Clear N/A N/A N/A S 7 11 N/A 10 16.0934 0 0
6:15 am 06:15 Partly Cloudy N/A N/A N/A S 8 13 N/A 10 16.0934 0 0
6:35 am 06:35 Sunny N/A N/A N/A SSW 8 13 N/A 10 16.0934 0 0
6:55 am 06:55 Partly Cloudy 78 25.8 68 19.9 70 70 SSW 6 9 29.92 1013 10 16.0934 0 0
7:15 am 07:15 Mostly Cloudy 80 26.4 68 20 68 68 SSW 8 13 29.93 1014 10 16.0934 0 0
7:35 am 07:35 Mostly Cloudy 79 26.3 68 20.2 69 69 SSW 7 11 29.93 1014 10 16.0934 0 0
7:55 am 07:55 Cloudy 79 26.3 68 20.2 69 69 SSW 7 11 29.94 1014 10 16.0934 0 0
8:15 am 08:15 Cloudy 79 26.2 69 20.4 70 70 SW 5 7 29.95 1014 10 16.0934 0 0
8:35 am 08:35 Cloudy 79 26 70 21 74 74 SW 5 7 29.96 1015 10 16.0934 0 0
8:55 am 08:55 Cloudy 78 25.4 70 21 77 77 SW 8 13 29.97 1015 10 16.0934 0 0
9:15 am 09:15 Cloudy 79 26 70 21 74 74 SW 10 17 29.97 1015 10 16.0934 0 0
9:35 am 09:35 Cloudy N/A N/A N/A SSW 10 17 N/A 10 16.0934 0 0
9:55 am 09:55 Mostly Cloudy N/A N/A N/A SW 13 20 N/A 10 16.0934 0 0
10:15 am 10:15 Mostly Cloudy N/A N/A N/A SSW 16 26 N/A 10 16.0934 0 0
10:35 am 10:35 Cloudy N/A N/A N/A SW 16 26 N/A 10 16.0934 0 0
10:55 am 10:55 Sunny N/A N/A N/A WSW 16 26 N/A 10 16.0934 0 0
11:15 am 11:15 Mostly Cloudy 84 29 72 22 66 66 WSW 15 24 29.98 1015 10 16.0934 0 0
11:35 am 11:35 Cloudy N/A N/A N/A SW 13 20 N/A 10 16.0934 0 0
11:55 am 11:55 Mostly Cloudy N/A N/A N/A W 14 22 N/A 10 16.0934 0 0
12:15 pm 12:15 Mostly Cloudy N/A N/A N/A WSW 16 26 N/A 10 16.0934 0 0
12:35 pm 12:35 Partly Cloudy N/A N/A N/A WSW 17 28 N/A 10 16.0934 0 0
12:55 pm 12:55 Partly Cloudy N/A N/A N/A W 15 24 N/A 10 16.0934 0 0
1:15 pm 13:15 Mostly Cloudy N/A N/A N/A WSW 13 20 N/A 10 16.0934 0 0
1:35 pm 13:35 Partly Cloudy N/A N/A N/A WSW 13 20 N/A 10 16.0934 0 0
1:55 pm 13:55 Partly Cloudy N/A N/A N/A W 14 22 N/A 10 16.0934 0 0
2:15 pm 14:15 Partly Cloudy N/A N/A N/A SW 13 20 N/A 10 16.0934 0 0
2:35 pm 14:35 Mostly Cloudy N/A N/A N/A WSW 12 19 N/A 10 16.0934 0 0
2:55 pm 14:55 Mostly Cloudy N/A N/A N/A W 16 26 N/A 10 16.0934 0 0
3:15 pm 15:15 Mostly Cloudy N/A N/A N/A W 16 26 N/A 10 16.0934 0 0
3:35 pm 15:35 Mostly Cloudy N/A N/A N/A W 14 22 N/A 10 16.0934 0 0
3:55 pm 15:55 Partly Cloudy N/A N/A N/A W 12 19 N/A 10 16.0934 0 0
4:15 pm 16:15 Partly Cloudy N/A N/A N/A WNW 15 24 N/A 10 16.0934 0 0
4:35 pm 16:35 Partly Cloudy N/A N/A N/A W 14 22 N/A 10 16.0934 0 0
4:55 pm 16:55 Sunny N/A N/A N/A W 12 19 N/A 10 16.0934 0 0
5:15 pm 17:15 Sunny N/A N/A N/A WNW 13 20 N/A 10 16.0934 0 0
5:35 pm 17:35 Sunny N/A N/A N/A WNW 14 22 N/A 10 16.0934 0 0
5:55 pm 17:55 Partly Cloudy 82 28 70 21 66 66 WNW 9 15 30.04 1017 10 16.0934 0 0
6:15 pm 18:15 Sunny N/A N/A N/A WNW 10 17 N/A 10 16.0934 0 0
6:35 pm 18:35 Partly Cloudy N/A N/A N/A WNW 9 15 N/A 10 16.0934 0 0
6:55 pm 18:55 Sunny N/A N/A N/A W 8 13 N/A 10 16.0934 0 0
7:15 pm 19:15 Sunny N/A N/A N/A WSW 8 13 N/A 10 16.0934 0 0
7:35 pm 19:35 Sunny N/A N/A N/A WNW 8 13 N/A 10 16.0934 0 0
7:55 pm 19:55 Sunny N/A N/A N/A WNW 8 13 N/A 10 16.0934 0 0
8:15 pm 20:15 Sunny N/A N/A N/A WNW 7 11 N/A 10 16.0934 0 0
8:35 pm 20:35 Sunny N/A N/A N/A W 9 15 N/A 10 16.0934 0 0
8:55 pm 20:55 Sunny N/A N/A N/A WNW 5 7 N/A 10 16.0934 0 0
9:15 pm 21:15 Clear N/A N/A N/A WNW 6 9 N/A 10 16.0934 0 0
9:35 pm 21:35 Clear N/A N/A N/A W 3 6 N/A 10 16.0934 0 0
9:55 pm 21:55 Clear N/A N/A N/A Calm N/A 10 16.0934 0 0
10:15 pm 22:15 Clear N/A N/A N/A SSW 3 6 N/A 10 16.0934 0 0
10:35 pm 22:35 Clear N/A N/A N/A SW 3 6 N/A 10 16.0934 0 0
10:55 pm 22:55 Clear N/A N/A N/A Calm N/A 10 16.0934 0 0
11:15 pm 23:15 Clear N/A N/A N/A Calm N/A 10 16.0934 0 0
11:35 pm 23:35 Clear N/A N/A N/A Calm N/A 10 16.0934 0 0
11:55 pm 23:55 Clear N/A N/A N/A Calm N/A 10 16.0934 0 0

Powered by AerisWeather